sensor_id;sensor_type;location;lat;lon;timestamp;pressure;altitude;pressure_sealevel;temperature;humidity
63097;BME280;49185;42.320;23.198;2022-07-10T00:00:43;94590.81;;;11.49;100.00
63097;BME280;49185;42.320;23.198;2022-07-10T00:03:08;94601.56;;;11.53;100.00
63097;BME280;49185;42.320;23.198;2022-07-10T00:05:34;94609.63;;;11.53;100.00
63097;BME280;49185;42.320;23.198;2022-07-10T00:07:59;94610.63;;;12.27;100.00
63097;BME280;49185;42.320;23.198;2022-07-10T00:10:25;94608.88;;;12.40;100.00
63097;BME280;49185;42.320;23.198;2022-07-10T00:12:51;94609.44;;;12.01;100.00
63097;BME280;49185;42.320;23.198;2022-07-10T00:15:17;94607.94;;;11.66;100.00
63097;BME280;49185;42.320;23.198;2022-07-10T00:17:44;94614.56;;;11.58;100.00
63097;BME280;49185;42.320;23.198;2022-07-10T00:20:12;94605.91;;;11.77;100.00
63097;BME280;49185;42.320;23.198;2022-07-10T00:22:38;94601.94;;;11.86;100.00
63097;BME280;49185;42.320;23.198;2022-07-10T00:25:05;94605.97;;;12.01;100.00
63097;BME280;49185;42.320;23.198;2022-07-10T00:27:31;94602.94;;;11.99;100.00
63097;BME280;49185;42.320;23.198;2022-07-10T00:29:57;94592.91;;;11.69;100.00
63097;BME280;49185;42.320;23.198;2022-07-10T00:32:23;94586.72;;;11.38;100.00
63097;BME280;49185;42.320;23.198;2022-07-10T00:34:49;94583.00;;;11.28;100.00
63097;BME280;49185;42.320;23.198;2022-07-10T00:37:15;94576.22;;;11.13;100.00
63097;BME280;49185;42.320;23.198;2022-07-10T00:39:41;94576.72;;;11.04;100.00
63097;BME280;49185;42.320;23.198;2022-07-10T00:42:12;94580.81;;;11.50;100.00
63097;BME280;49185;42.320;23.198;2022-07-10T00:44:38;94578.72;;;11.31;100.00
63097;BME280;49185;42.320;23.198;2022-07-10T00:47:04;94570.41;;;11.18;100.00
63097;BME280;49185;42.320;23.198;2022-07-10T00:49:31;94565.22;;;11.00;100.00
63097;BME280;49185;42.320;23.198;2022-07-10T00:52:00;94552.97;;;10.96;100.00
63097;BME280;49185;42.320;23.198;2022-07-10T00:54:25;94566.00;;;10.97;100.00
63097;BME280;49185;42.320;23.198;2022-07-10T00:56:51;94551.75;;;11.00;100.00
63097;BME280;49185;42.320;23.198;2022-07-10T00:59:18;94552.31;;;10.85;100.00
63097;BME280;49185;42.320;23.198;2022-07-10T01:01:45;94556.91;;;10.88;100.00
63097;BME280;49185;42.320;23.198;2022-07-10T01:04:10;94551.50;;;10.91;100.00
63097;BME280;49185;42.320;23.198;2022-07-10T01:06:36;94543.56;;;11.11;100.00
63097;BME280;49185;42.320;23.198;2022-07-10T01:09:02;94547.50;;;11.03;100.00
63097;BME280;49185;42.320;23.198;2022-07-10T01:11:28;94550.22;;;11.37;100.00
63097;BME280;49185;42.320;23.198;2022-07-10T01:13:54;94548.28;;;11.03;100.00
63097;BME280;49185;42.320;23.198;2022-07-10T01:16:19;94555.16;;;11.42;100.00
63097;BME280;49185;42.320;23.198;2022-07-10T01:18:45;94546.16;;;11.52;100.00
63097;BME280;49185;42.320;23.198;2022-07-10T01:23:55;94544.13;;;11.63;100.00
63097;BME280;49185;42.320;23.198;2022-07-10T01:26:21;94536.78;;;11.33;100.00
63097;BME280;49185;42.320;23.198;2022-07-10T01:28:52;94534.13;;;11.30;100.00
63097;BME280;49185;42.320;23.198;2022-07-10T01:31:25;94535.66;;;11.31;100.00
63097;BME280;49185;42.320;23.198;2022-07-10T01:33:51;94519.91;;;11.29;100.00
63097;BME280;49185;42.320;23.198;2022-07-10T01:36:17;94533.47;;;11.22;100.00
63097;BME280;49185;42.320;23.198;2022-07-10T01:38:43;94530.53;;;11.09;100.00
63097;BME280;49185;42.320;23.198;2022-07-10T01:41:09;94535.28;;;10.95;100.00
63097;BME280;49185;42.320;23.198;2022-07-10T01:43:35;94522.38;;;10.79;100.00
63097;BME280;49185;42.320;23.198;2022-07-10T01:46:01;94522.53;;;10.65;100.00
63097;BME280;49185;42.320;23.198;2022-07-10T01:48:27;94514.25;;;10.45;100.00
63097;BME280;49185;42.320;23.198;2022-07-10T01:50:52;94516.16;;;10.48;100.00
63097;BME280;49185;42.320;23.198;2022-07-10T01:53:18;94515.75;;;10.53;100.00
63097;BME280;49185;42.320;23.198;2022-07-10T01:55:43;94521.91;;;10.50;100.00
63097;BME280;49185;42.320;23.198;2022-07-10T01:58:09;94522.34;;;10.41;100.00
63097;BME280;49185;42.320;23.198;2022-07-10T02:00:35;94516.31;;;10.30;100.00
63097;BME280;49185;42.320;23.198;2022-07-10T02:03:00;94511.41;;;10.18;100.00
63097;BME280;49185;42.320;23.198;2022-07-10T02:05:26;94507.94;;;10.21;100.00
63097;BME280;49185;42.320;23.198;2022-07-10T02:07:51;94509.88;;;10.17;100.00
63097;BME280;49185;42.320;23.198;2022-07-10T02:10:16;94516.81;;;10.11;100.00
63097;BME280;49185;42.320;23.198;2022-07-10T02:12:42;94527.66;;;10.00;100.00
63097;BME280;49185;42.320;23.198;2022-07-10T02:15:07;94520.38;;;10.01;100.00
63097;BME280;49185;42.320;23.198;2022-07-10T02:17:33;94512.72;;;9.96;100.00
63097;BME280;49185;42.320;23.198;2022-07-10T02:19:58;94515.41;;;9.96;100.00
63097;BME280;49185;42.320;23.198;2022-07-10T02:22:24;94506.81;;;10.15;100.00
63097;BME280;49185;42.320;23.198;2022-07-10T02:24:49;94507.63;;;10.08;100.00
63097;BME280;49185;42.320;23.198;2022-07-10T02:27:15;94513.41;;;10.03;100.00
63097;BME280;49185;42.320;23.198;2022-07-10T02:29:40;94521.31;;;10.73;100.00
63097;BME280;49185;42.320;23.198;2022-07-10T02:32:06;94518.16;;;10.78;100.00
63097;BME280;49185;42.320;23.198;2022-07-10T02:34:31;94515.03;;;10.46;100.00
63097;BME280;49185;42.320;23.198;2022-07-10T02:36:56;94521.88;;;10.54;100.00
63097;BME280;49185;42.320;23.198;2022-07-10T02:39:22;94518.44;;;10.53;100.00
63097;BME280;49185;42.320;23.198;2022-07-10T02:41:48;94522.56;;;10.20;100.00
63097;BME280;49185;42.320;23.198;2022-07-10T02:44:13;94530.75;;;9.99;100.00
63097;BME280;49185;42.320;23.198;2022-07-10T02:46:39;94526.16;;;9.96;100.00
63097;BME280;49185;42.320;23.198;2022-07-10T02:49:04;94514.31;;;9.86;100.00
63097;BME280;49185;42.320;23.198;2022-07-10T02:51:29;94526.97;;;9.86;100.00
63097;BME280;49185;42.320;23.198;2022-07-10T02:53:55;94524.72;;;9.81;100.00
63097;BME280;49185;42.320;23.198;2022-07-10T02:56:20;94530.09;;;9.81;100.00
63097;BME280;49185;42.320;23.198;2022-07-10T02:58:46;94527.72;;;10.41;100.00
63097;BME280;49185;42.320;23.198;2022-07-10T03:01:11;94528.72;;;10.14;100.00
63097;BME280;49185;42.320;23.198;2022-07-10T03:03:37;94530.38;;;9.97;100.00
63097;BME280;49185;42.320;23.198;2022-07-10T03:06:02;94537.25;;;9.98;100.00
63097;BME280;49185;42.320;23.198;2022-07-10T03:08:29;94523.72;;;10.12;100.00
63097;BME280;49185;42.320;23.198;2022-07-10T03:10:55;94537.00;;;10.37;100.00
63097;BME280;49185;42.320;23.198;2022-07-10T03:13:20;94531.31;;;10.24;100.00
63097;BME280;49185;42.320;23.198;2022-07-10T03:15:45;94529.38;;;10.28;100.00
63097;BME280;49185;42.320;23.198;2022-07-10T03:18:11;94540.47;;;10.34;100.00
63097;BME280;49185;42.320;23.198;2022-07-10T03:20:36;94529.78;;;10.27;100.00
63097;BME280;49185;42.320;23.198;2022-07-10T03:23:02;94538.22;;;10.29;100.00
63097;BME280;49185;42.320;23.198;2022-07-10T03:25:27;94536.63;;;10.35;100.00
63097;BME280;49185;42.320;23.198;2022-07-10T03:27:53;94559.34;;;10.27;100.00
63097;BME280;49185;42.320;23.198;2022-07-10T03:30:18;94553.25;;;10.19;100.00
63097;BME280;49185;42.320;23.198;2022-07-10T03:32:44;94551.28;;;10.27;100.00
63097;BME280;49185;42.320;23.198;2022-07-10T03:35:09;94548.59;;;10.27;100.00
63097;BME280;49185;42.320;23.198;2022-07-10T03:37:34;94534.72;;;10.35;100.00
63097;BME280;49185;42.320;23.198;2022-07-10T03:40:00;94545.72;;;10.52;100.00
63097;BME280;49185;42.320;23.198;2022-07-10T03:42:25;94550.03;;;10.83;100.00
63097;BME280;49185;42.320;23.198;2022-07-10T03:44:51;94541.72;;;11.04;100.00
63097;BME280;49185;42.320;23.198;2022-07-10T03:47:16;94543.75;;;10.93;100.00
63097;BME280;49185;42.320;23.198;2022-07-10T03:49:41;94550.38;;;10.85;100.00
63097;BME280;49185;42.320;23.198;2022-07-10T03:52:07;94543.53;;;10.77;100.00
63097;BME280;49185;42.320;23.198;2022-07-10T03:54:33;94538.53;;;10.79;100.00
63097;BME280;49185;42.320;23.198;2022-07-10T03:56:58;94533.88;;;10.83;100.00
63097;BME280;49185;42.320;23.198;2022-07-10T03:59:23;94530.75;;;10.88;100.00
63097;BME280;49185;42.320;23.198;2022-07-10T04:01:49;94520.66;;;10.99;100.00
63097;BME280;49185;42.320;23.198;2022-07-10T04:04:14;94535.25;;;11.32;100.00
63097;BME280;49185;42.320;23.198;2022-07-10T04:06:40;94532.44;;;11.43;100.00
63097;BME280;49185;42.320;23.198;2022-07-10T04:09:05;94534.19;;;11.57;100.00
63097;BME280;49185;42.320;23.198;2022-07-10T04:11:31;94539.94;;;12.16;100.00
63097;BME280;49185;42.320;23.198;2022-07-10T04:13:56;94520.09;;;12.53;100.00
63097;BME280;49185;42.320;23.198;2022-07-10T04:16:22;94517.22;;;13.46;100.00
63097;BME280;49185;42.320;23.198;2022-07-10T07:03:35;94480.06;;;24.37;56.91
63097;BME280;49185;42.320;23.198;2022-07-10T07:06:20;94482.44;;;26.02;50.92
63097;BME280;49185;42.320;23.198;2022-07-10T07:09:06;94480.53;;;27.16;47.75
63097;BME280;49185;42.320;23.198;2022-07-10T07:11:52;94487.66;;;25.60;51.69
63097;BME280;49185;42.320;23.198;2022-07-10T07:14:37;94485.28;;;24.03;56.46
63097;BME280;49185;42.320;23.198;2022-07-10T07:17:23;94477.94;;;24.52;55.80
63097;BME280;49185;42.320;23.198;2022-07-10T07:20:09;94484.06;;;24.04;56.93
63097;BME280;49185;42.320;23.198;2022-07-10T07:22:39;94476.13;;;22.88;60.18
63097;BME280;49185;42.320;23.198;2022-07-10T07:25:05;94476.84;;;22.68;61.15
63097;BME280;49185;42.320;23.198;2022-07-10T07:27:32;94474.81;;;23.04;60.14
63097;BME280;49185;42.320;23.198;2022-07-10T07:30:02;94475.03;;;25.20;53.97
63097;BME280;49185;42.320;23.198;2022-07-10T07:32:28;94477.91;;;25.65;52.29
63097;BME280;49185;42.320;23.198;2022-07-10T07:34:53;94482.91;;;24.48;54.44
63097;BME280;49185;42.320;23.198;2022-07-10T07:37:19;94471.25;;;23.96;56.57
63097;BME280;49185;42.320;23.198;2022-07-10T07:39:44;94472.41;;;23.58;58.76
63097;BME280;49185;42.320;23.198;2022-07-10T07:42:10;94461.69;;;24.17;59.66
63097;BME280;49185;42.320;23.198;2022-07-10T07:44:35;94462.44;;;24.97;55.59
63097;BME280;49185;42.320;23.198;2022-07-10T07:47:01;94453.41;;;26.06;52.50
63097;BME280;49185;42.320;23.198;2022-07-10T07:49:26;94451.63;;;27.75;46.13
63097;BME280;49185;42.320;23.198;2022-07-10T07:51:52;94445.03;;;28.67;43.59
63097;BME280;49185;42.320;23.198;2022-07-10T07:54:17;94450.00;;;30.57;40.77
63097;BME280;49185;42.320;23.198;2022-07-10T07:56:42;94455.63;;;32.12;37.20
63097;BME280;49185;42.320;23.198;2022-07-10T07:59:08;94450.59;;;32.23;36.70
63097;BME280;49185;42.320;23.198;2022-07-10T08:01:33;94462.16;;;30.67;35.88
63097;BME280;49185;42.320;23.198;2022-07-10T08:03:59;94462.66;;;29.13;40.37
63097;BME280;49185;42.320;23.198;2022-07-10T08:06:25;94464.44;;;27.72;42.79
63097;BME280;49185;42.320;23.198;2022-07-10T08:08:50;94459.22;;;27.16;44.20
63097;BME280;49185;42.320;23.198;2022-07-10T08:11:16;94461.81;;;25.47;48.02
63097;BME280;49185;42.320;23.198;2022-07-10T08:13:41;94451.16;;;26.33;46.54
63097;BME280;49185;42.320;23.198;2022-07-10T08:16:07;94448.72;;;27.50;43.79
63097;BME280;49185;42.320;23.198;2022-07-10T08:18:32;94455.41;;;26.45;46.09
63097;BME280;49185;42.320;23.198;2022-07-10T08:20:58;94463.66;;;26.00;45.94
63097;BME280;49185;42.320;23.198;2022-07-10T08:23:23;94455.50;;;27.03;45.50
63097;BME280;49185;42.320;23.198;2022-07-10T08:25:49;94454.09;;;27.78;44.07
63097;BME280;49185;42.320;23.198;2022-07-10T08:28:14;94453.47;;;27.61;44.40
63097;BME280;49185;42.320;23.198;2022-07-10T08:30:39;94446.25;;;27.41;43.22
63097;BME280;49185;42.320;23.198;2022-07-10T08:33:05;94455.41;;;27.72;41.64
63097;BME280;49185;42.320;23.198;2022-07-10T08:35:30;94458.72;;;28.00;42.47
63097;BME280;49185;42.320;23.198;2022-07-10T08:37:56;94449.84;;;28.43;41.08
63097;BME280;49185;42.320;23.198;2022-07-10T08:40:22;94453.78;;;27.46;42.43
63097;BME280;49185;42.320;23.198;2022-07-10T08:42:48;94452.84;;;26.52;45.88
63097;BME280;49185;42.320;23.198;2022-07-10T08:45:14;94463.91;;;25.69;46.15
63097;BME280;49185;42.320;23.198;2022-07-10T08:47:40;94458.50;;;25.26;45.63
63097;BME280;49185;42.320;23.198;2022-07-10T08:50:18;94451.50;;;27.04;42.58
63097;BME280;49185;42.320;23.198;2022-07-10T08:53:13;94449.75;;;26.89;44.31
63097;BME280;49185;42.320;23.198;2022-07-10T08:55:39;94441.38;;;26.09;44.40
63097;BME280;49185;42.320;23.198;2022-07-10T08:58:05;94442.56;;;26.64;44.62
63097;BME280;49185;42.320;23.198;2022-07-10T09:00:33;94448.88;;;25.81;45.89
63097;BME280;49185;42.320;23.198;2022-07-10T09:02:58;94444.59;;;25.57;48.61
63097;BME280;49185;42.320;23.198;2022-07-10T09:05:26;94446.09;;;24.34;49.52
63097;BME280;49185;42.320;23.198;2022-07-10T09:07:53;94442.47;;;23.34;52.30
63097;BME280;49185;42.320;23.198;2022-07-10T09:10:20;94441.34;;;23.00;53.35
63097;BME280;49185;42.320;23.198;2022-07-10T09:12:58;94437.66;;;23.03;53.04
63097;BME280;49185;42.320;23.198;2022-07-10T09:15:29;94439.22;;;23.09;52.42
63097;BME280;49185;42.320;23.198;2022-07-10T09:18:00;94431.53;;;23.13;53.58
63097;BME280;49185;42.320;23.198;2022-07-10T09:20:30;94432.09;;;23.43;51.75
63097;BME280;49185;42.320;23.198;2022-07-10T09:22:57;94434.97;;;23.54;50.86
63097;BME280;49185;42.320;23.198;2022-07-10T09:25:33;94434.06;;;23.69;53.35
63097;BME280;49185;42.320;23.198;2022-07-10T09:27:58;94432.06;;;23.64;51.83
63097;BME280;49185;42.320;23.198;2022-07-10T09:30:32;94447.31;;;25.46;47.76
63097;BME280;49185;42.320;23.198;2022-07-10T09:33:26;94431.59;;;27.22;42.83
63097;BME280;49185;42.320;23.198;2022-07-10T09:36:08;94441.03;;;25.23;45.73
63097;BME280;49185;42.320;23.198;2022-07-10T09:41:18;94430.28;;;23.92;48.45
63097;BME280;49185;42.320;23.198;2022-07-10T09:44:12;94435.50;;;23.59;49.65
63097;BME280;49185;42.320;23.198;2022-07-10T09:46:38;94425.09;;;23.68;50.37
63097;BME280;49185;42.320;23.198;2022-07-10T09:49:09;94421.41;;;23.51;49.60
63097;BME280;49185;42.320;23.198;2022-07-10T09:51:40;94431.94;;;23.78;49.34
63097;BME280;49185;42.320;23.198;2022-07-10T09:54:08;94427.88;;;24.05;47.45
63097;BME280;49185;42.320;23.198;2022-07-10T09:56:47;94426.97;;;24.19;48.61
63097;BME280;49185;42.320;23.198;2022-07-10T09:59:18;94426.69;;;25.03;45.57
63097;BME280;49185;42.320;23.198;2022-07-10T10:01:49;94426.03;;;25.36;46.57
63097;BME280;49185;42.320;23.198;2022-07-10T10:04:21;94417.50;;;26.62;43.40
63097;BME280;49185;42.320;23.198;2022-07-10T10:06:50;94410.91;;;27.40;40.21
63097;BME280;49185;42.320;23.198;2022-07-10T10:09:24;94417.44;;;26.84;41.98
63097;BME280;49185;42.320;23.198;2022-07-10T10:11:54;94422.22;;;26.78;41.74
63097;BME280;49185;42.320;23.198;2022-07-10T10:30:39;94403.44;;;27.70;37.74
63097;BME280;49185;42.320;23.198;2022-07-10T10:36:00;94397.03;;;26.30;41.52
63097;BME280;49185;42.320;23.198;2022-07-10T10:41:40;94398.00;;;26.26;42.44
63097;BME280;49185;42.320;23.198;2022-07-10T10:46:35;94392.78;;;25.67;43.74
63097;BME280;49185;42.320;23.198;2022-07-10T10:49:08;94387.72;;;25.26;46.17
63097;BME280;49185;42.320;23.198;2022-07-10T10:52:02;94389.75;;;25.54;46.29
63097;BME280;49185;42.320;23.198;2022-07-10T10:59:58;94391.28;;;24.68;44.99
63097;BME280;49185;42.320;23.198;2022-07-10T11:02:33;94384.16;;;24.39;44.21
63097;BME280;49185;42.320;23.198;2022-07-10T11:08:03;94386.94;;;24.44;45.89
63097;BME280;49185;42.320;23.198;2022-07-10T11:10:36;94384.41;;;23.98;48.39
63097;BME280;49185;42.320;23.198;2022-07-10T11:13:18;94390.41;;;24.02;48.17
63097;BME280;49185;42.320;23.198;2022-07-10T11:15:48;94391.78;;;23.86;47.75
63097;BME280;49185;42.320;23.198;2022-07-10T11:18:16;94388.22;;;24.54;47.47
63097;BME280;49185;42.320;23.198;2022-07-10T11:20:45;94380.53;;;24.64;46.86
63097;BME280;49185;42.320;23.198;2022-07-10T11:25:53;94362.22;;;25.99;43.19
63097;BME280;49185;42.320;23.198;2022-07-10T11:28:24;94371.03;;;25.75;44.24
63097;BME280;49185;42.320;23.198;2022-07-10T11:30:52;94359.31;;;24.70;44.66
63097;BME280;49185;42.320;23.198;2022-07-10T11:33:19;94363.06;;;24.78;46.75
63097;BME280;49185;42.320;23.198;2022-07-10T11:35:45;94364.53;;;25.78;44.58
63097;BME280;49185;42.320;23.198;2022-07-10T11:38:11;94357.72;;;26.87;40.52
63097;BME280;49185;42.320;23.198;2022-07-10T11:40:37;94367.41;;;26.47;42.04
63097;BME280;49185;42.320;23.198;2022-07-10T11:43:02;94368.78;;;25.79;42.85
63097;BME280;49185;42.320;23.198;2022-07-10T11:45:30;94367.91;;;27.09;41.67
63097;BME280;49185;42.320;23.198;2022-07-10T11:47:57;94374.81;;;27.97;37.58
63097;BME280;49185;42.320;23.198;2022-07-10T11:50:23;94363.34;;;27.58;39.36
63097;BME280;49185;42.320;23.198;2022-07-10T11:52:50;94371.47;;;26.98;41.90
63097;BME280;49185;42.320;23.198;2022-07-10T11:55:21;94371.00;;;25.97;44.84
63097;BME280;49185;42.320;23.198;2022-07-10T11:57:47;94361.97;;;26.13;43.81
63097;BME280;49185;42.320;23.198;2022-07-10T12:00:28;94363.81;;;28.22;40.29
63097;BME280;49185;42.320;23.198;2022-07-10T12:02:55;94362.91;;;28.08;37.79
63097;BME280;49185;42.320;23.198;2022-07-10T12:05:35;94363.41;;;26.48;39.27
63097;BME280;49185;42.320;23.198;2022-07-10T12:08:02;94361.00;;;27.68;39.31
63097;BME280;49185;42.320;23.198;2022-07-10T12:10:28;94360.63;;;28.12;36.95
63097;BME280;49185;42.320;23.198;2022-07-10T12:13:03;94363.34;;;27.88;36.35
63097;BME280;49185;42.320;23.198;2022-07-10T12:15:37;94364.06;;;28.18;38.00
63097;BME280;49185;42.320;23.198;2022-07-10T12:18:04;94352.31;;;26.59;40.37
63097;BME280;49185;42.320;23.198;2022-07-10T12:20:30;94353.56;;;27.16;39.33
63097;BME280;49185;42.320;23.198;2022-07-10T12:22:56;94374.00;;;25.66;39.95
63097;BME280;49185;42.320;23.198;2022-07-10T12:25:22;94367.66;;;25.09;42.16
63097;BME280;49185;42.320;23.198;2022-07-10T12:27:48;94369.97;;;25.22;42.47
63097;BME280;49185;42.320;23.198;2022-07-10T12:30:14;94351.16;;;26.32;39.68
63097;BME280;49185;42.320;23.198;2022-07-10T12:32:39;94359.78;;;27.63;37.49
63097;BME280;49185;42.320;23.198;2022-07-10T12:35:05;94348.56;;;27.09;38.99
63097;BME280;49185;42.320;23.198;2022-07-10T12:37:30;94338.69;;;26.83;41.07
63097;BME280;49185;42.320;23.198;2022-07-10T12:39:56;94336.91;;;26.11;41.39
63097;BME280;49185;42.320;23.198;2022-07-10T12:42:31;94350.91;;;26.19;40.48
63097;BME280;49185;42.320;23.198;2022-07-10T12:45:13;94350.19;;;26.30;41.41
63097;BME280;49185;42.320;23.198;2022-07-10T12:47:46;94335.38;;;26.33;40.65
63097;BME280;49185;42.320;23.198;2022-07-10T12:50:13;94344.47;;;25.94;42.23
63097;BME280;49185;42.320;23.198;2022-07-10T12:52:39;94337.94;;;25.52;41.44
63097;BME280;49185;42.320;23.198;2022-07-10T12:55:16;94347.69;;;25.98;41.64
63097;BME280;49185;42.320;23.198;2022-07-10T12:57:59;94345.44;;;26.08;40.69
63097;BME280;49185;42.320;23.198;2022-07-10T13:00:26;94337.97;;;25.75;42.42
63097;BME280;49185;42.320;23.198;2022-07-10T13:03:01;94354.97;;;25.34;42.82
63097;BME280;49185;42.320;23.198;2022-07-10T13:05:34;94351.97;;;25.54;41.68
63097;BME280;49185;42.320;23.198;2022-07-10T13:08:16;94357.94;;;26.31;40.69
63097;BME280;49185;42.320;23.198;2022-07-10T13:10:48;94358.47;;;26.02;37.43
63097;BME280;49185;42.320;23.198;2022-07-10T13:13:14;94349.47;;;25.51;38.69
63097;BME280;49185;42.320;23.198;2022-07-10T13:15:40;94334.41;;;25.13;40.16
63097;BME280;49185;42.320;23.198;2022-07-10T13:18:12;94343.72;;;25.54;41.93
63097;BME280;49185;42.320;23.198;2022-07-10T13:20:38;94341.41;;;26.14;42.34
63097;BME280;49185;42.320;23.198;2022-07-10T13:23:03;94345.44;;;26.02;41.54
63097;BME280;49185;42.320;23.198;2022-07-10T13:25:29;94342.94;;;25.48;41.46
63097;BME280;49185;42.320;23.198;2022-07-10T13:27:54;94344.97;;;25.37;41.67
63097;BME280;49185;42.320;23.198;2022-07-10T13:30:20;94346.22;;;25.52;42.31
63097;BME280;49185;42.320;23.198;2022-07-10T13:32:45;94341.22;;;25.68;43.21
63097;BME280;49185;42.320;23.198;2022-07-10T13:35:11;94339.22;;;25.40;42.78
63097;BME280;49185;42.320;23.198;2022-07-10T13:37:36;94352.69;;;25.16;43.60
63097;BME280;49185;42.320;23.198;2022-07-10T13:40:02;94353.41;;;25.00;44.26
63097;BME280;49185;42.320;23.198;2022-07-10T13:42:27;94340.81;;;24.76;42.68
63097;BME280;49185;42.320;23.198;2022-07-10T13:44:53;94355.06;;;24.69;43.78
63097;BME280;49185;42.320;23.198;2022-07-10T13:47:18;94347.28;;;24.62;42.85
63097;BME280;49185;42.320;23.198;2022-07-10T13:49:44;94359.84;;;24.85;42.57
63097;BME280;49185;42.320;23.198;2022-07-10T13:52:09;94361.34;;;24.92;42.43
63097;BME280;49185;42.320;23.198;2022-07-10T13:54:35;94366.63;;;24.90;42.81
63097;BME280;49185;42.320;23.198;2022-07-10T13:57:00;94354.94;;;24.41;41.65
63097;BME280;49185;42.320;23.198;2022-07-10T13:59:26;94359.50;;;24.13;42.51
63097;BME280;49185;42.320;23.198;2022-07-10T14:01:52;94353.44;;;24.03;42.49
63097;BME280;49185;42.320;23.198;2022-07-10T14:04:17;94358.50;;;24.10;41.49
63097;BME280;49185;42.320;23.198;2022-07-10T14:06:42;94362.53;;;24.20;41.34
63097;BME280;49185;42.320;23.198;2022-07-10T14:09:08;94356.38;;;24.31;39.86
63097;BME280;49185;42.320;23.198;2022-07-10T14:11:33;94366.72;;;24.10;40.54
63097;BME280;49185;42.320;23.198;2022-07-10T14:14:00;94355.38;;;24.29;41.02
63097;BME280;49185;42.320;23.198;2022-07-10T14:16:26;94370.66;;;24.41;41.52
63097;BME280;49185;42.320;23.198;2022-07-10T14:18:51;94366.78;;;24.16;42.25
63097;BME280;49185;42.320;23.198;2022-07-10T14:21:17;94359.44;;;24.02;43.50
63097;BME280;49185;42.320;23.198;2022-07-10T14:23:42;94370.94;;;24.06;43.71
63097;BME280;49185;42.320;23.198;2022-07-10T14:26:08;94365.66;;;23.60;43.28
63097;BME280;49185;42.320;23.198;2022-07-10T14:28:34;94367.66;;;23.65;42.91
63097;BME280;49185;42.320;23.198;2022-07-10T14:30:59;94368.19;;;23.69;42.02
63097;BME280;49185;42.320;23.198;2022-07-10T14:33:24;94377.84;;;23.90;43.27
63097;BME280;49185;42.320;23.198;2022-07-10T14:35:50;94378.53;;;23.85;41.86
63097;BME280;49185;42.320;23.198;2022-07-10T14:38:15;94371.53;;;24.15;41.08
63097;BME280;49185;42.320;23.198;2022-07-10T14:40:41;94377.47;;;24.08;41.93
63097;BME280;49185;42.320;23.198;2022-07-10T14:43:06;94388.22;;;24.12;42.53
63097;BME280;49185;42.320;23.198;2022-07-10T14:45:32;94385.66;;;24.03;41.58
63097;BME280;49185;42.320;23.198;2022-07-10T14:47:57;94388.13;;;23.95;43.82
63097;BME280;49185;42.320;23.198;2022-07-10T14:50:23;94386.94;;;23.70;44.86
63097;BME280;49185;42.320;23.198;2022-07-10T14:52:48;94388.19;;;23.17;46.05
63097;BME280;49185;42.320;23.198;2022-07-10T14:55:14;94392.16;;;22.91;47.24
63097;BME280;49185;42.320;23.198;2022-07-10T14:57:39;94392.63;;;23.15;47.00
63097;BME280;49185;42.320;23.198;2022-07-10T15:00:05;94385.00;;;22.99;45.62
63097;BME280;49185;42.320;23.198;2022-07-10T15:02:31;94392.19;;;22.76;46.48
63097;BME280;49185;42.320;23.198;2022-07-10T15:04:56;94390.38;;;22.88;44.91
63097;BME280;49185;42.320;23.198;2022-07-10T15:07:22;94387.16;;;22.89;44.54
63097;BME280;49185;42.320;23.198;2022-07-10T15:09:47;94386.88;;;23.13;43.64
63097;BME280;49185;42.320;23.198;2022-07-10T15:12:13;94391.84;;;23.09;43.76
63097;BME280;49185;42.320;23.198;2022-07-10T15:14:38;94401.47;;;23.25;44.58
63097;BME280;49185;42.320;23.198;2022-07-10T15:17:04;94394.41;;;22.92;42.45
63097;BME280;49185;42.320;23.198;2022-07-10T15:19:29;94396.34;;;22.86;44.52
63097;BME280;49185;42.320;23.198;2022-07-10T15:21:55;94401.34;;;22.88;43.74
63097;BME280;49185;42.320;23.198;2022-07-10T15:24:20;94398.72;;;22.78;44.09
63097;BME280;49185;42.320;23.198;2022-07-10T15:26:46;94392.00;;;22.79;44.38
63097;BME280;49185;42.320;23.198;2022-07-10T15:29:12;94395.22;;;22.58;44.92
63097;BME280;49185;42.320;23.198;2022-07-10T15:31:37;94401.59;;;22.69;45.03
63097;BME280;49185;42.320;23.198;2022-07-10T15:34:08;94405.94;;;22.56;45.27
63097;BME280;49185;42.320;23.198;2022-07-10T15:36:34;94405.16;;;22.55;46.12
63097;BME280;49185;42.320;23.198;2022-07-10T15:39:00;94410.66;;;22.55;46.51
63097;BME280;49185;42.320;23.198;2022-07-10T15:41:25;94415.09;;;22.52;45.58
63097;BME280;49185;42.320;23.198;2022-07-10T15:43:51;94417.84;;;22.52;45.30
63097;BME280;49185;42.320;23.198;2022-07-10T15:46:16;94410.78;;;22.46;44.67
63097;BME280;49185;42.320;23.198;2022-07-10T15:48:42;94420.09;;;22.54;45.33
63097;BME280;49185;42.320;23.198;2022-07-10T15:51:08;94419.19;;;22.63;44.26
63097;BME280;49185;42.320;23.198;2022-07-10T15:53:33;94422.56;;;22.52;43.95
63097;BME280;49185;42.320;23.198;2022-07-10T15:55:59;94416.69;;;22.24;44.88
63097;BME280;49185;42.320;23.198;2022-07-10T15:58:24;94425.00;;;22.30;45.63
63097;BME280;49185;42.320;23.198;2022-07-10T16:00:49;94429.22;;;22.10;44.87
63097;BME280;49185;42.320;23.198;2022-07-10T16:03:15;94424.88;;;22.04;45.47
63097;BME280;49185;42.320;23.198;2022-07-10T16:05:41;94436.09;;;22.06;45.92
63097;BME280;49185;42.320;23.198;2022-07-10T16:08:06;94434.69;;;22.10;45.35
63097;BME280;49185;42.320;23.198;2022-07-10T16:10:32;94442.44;;;22.12;44.53
63097;BME280;49185;42.320;23.198;2022-07-10T16:12:57;94447.16;;;22.11;44.20
63097;BME280;49185;42.320;23.198;2022-07-10T16:15:23;94444.84;;;22.25;43.70